createdAt,value
2023-01-20T00:02:19.845Z,99886.83
2023-01-20T00:04:48.603Z,99886.24
2023-01-20T00:07:15.751Z,99883.69
2023-01-20T00:09:42.601Z,99887.10
2023-01-20T00:12:09.541Z,99888.36
2023-01-20T00:14:36.379Z,99887.11
2023-01-20T00:17:03.431Z,99890.60
2023-01-20T00:19:30.233Z,99888.03
2023-01-20T00:21:57.015Z,99884.56
2023-01-20T00:24:23.975Z,99882.80
2023-01-20T00:26:50.866Z,99878.87
2023-01-20T00:29:17.896Z,99886.30
2023-01-20T00:31:45.164Z,99886.08
2023-01-20T00:34:12.050Z,99889.25
2023-01-20T00:37:36.751Z,99887.21
2023-01-20T00:41:38.521Z,99883.86
2023-01-20T00:44:30.357Z,99884.02
2023-01-20T00:46:57.236Z,99882.52
2023-01-20T00:49:24.242Z,99882.98
2023-01-20T00:51:51.226Z,99885.92
2023-01-20T00:54:18.342Z,99888.98
2023-01-20T00:56:45.282Z,99887.28
2023-01-20T00:59:12.227Z,99884.20
2023-01-20T01:01:39.284Z,99882.35
2023-01-20T01:04:06.326Z,99881.56
2023-01-20T01:06:33.164Z,99878.22
2023-01-20T01:09:00.119Z,99878.06
2023-01-20T01:11:27.070Z,99880.16
2023-01-20T01:13:55.846Z,99881.10
2023-01-20T01:16:22.828Z,99889.17
2023-01-20T01:18:49.738Z,99888.55
2023-01-20T01:21:16.887Z,99883.77
2023-01-20T01:23:43.777Z,99882.30
2023-01-20T01:26:10.882Z,99881.02
2023-01-20T01:28:37.962Z,99883.11
2023-01-20T01:31:06.266Z,99882.07
2023-01-20T01:33:33.566Z,99882.12
2023-01-20T01:36:01.637Z,99877.01
2023-01-20T01:38:28.593Z,99873.20
2023-01-20T01:40:55.834Z,99875.45
2023-01-20T01:43:33.574Z,99875.04
2023-01-20T01:46:00.742Z,99870.30
2023-01-20T01:48:37.151Z,99867.96
2023-01-20T01:52:01.236Z,99863.03
2023-01-20T01:55:06.190Z,99867.70
2023-01-20T01:57:33.116Z,99877.33
2023-01-20T02:00:00.071Z,99881.86
2023-01-20T02:02:27.066Z,99885.46
2023-01-20T02:04:54.068Z,99885.48
2023-01-20T02:07:21.107Z,99889.55
2023-01-20T02:09:48.274Z,99889.71
2023-01-20T02:12:17.495Z,99884.86
2023-01-20T02:14:47.387Z,99880.20
2023-01-20T02:17:33.163Z,99880.39
2023-01-20T02:20:09.939Z,99882.36
2023-01-20T02:22:57.876Z,99883.21
2023-01-20T02:25:27.736Z,99885.19
2023-01-20T02:28:16.663Z,99889.00
2023-01-20T02:31:10.113Z,99892.45
2023-01-20T02:33:46.353Z,99895.97
2023-01-20T02:36:23.274Z,99895.04
2023-01-20T02:38:53.378Z,99892.48
2023-01-20T02:41:39.572Z,99895.13
2023-01-20T02:44:27.407Z,99893.94
2023-01-20T02:47:26.045Z,99901.81
2023-01-20T02:49:54.482Z,99910.27
2023-01-20T02:52:24.041Z,99919.57
2023-01-20T02:54:53.078Z,99921.96
2023-01-20T02:57:24.089Z,99922.12
2023-01-20T02:59:53.318Z,99920.52
2023-01-20T03:02:21.213Z,99923.23
2023-01-20T03:04:59.394Z,99929.86
2023-01-20T03:07:27.800Z,99928.19
2023-01-20T03:09:56.358Z,99921.66
2023-01-20T03:12:32.109Z,99921.86
2023-01-20T03:14:59.062Z,99931.13
2023-01-20T03:17:26.005Z,99943.36
2023-01-20T03:19:52.851Z,99938.95
2023-01-20T03:22:19.797Z,99939.21
2023-01-20T03:24:46.737Z,99942.83
2023-01-20T03:27:13.692Z,99942.77
2023-01-20T03:29:40.510Z,99947.52
2023-01-20T03:32:08.391Z,99946.63
2023-01-20T03:34:35.951Z,99951.45
2023-01-20T03:37:02.774Z,99956.58
2023-01-20T03:39:29.666Z,99961.67
2023-01-20T03:42:17.779Z,99968.48
2023-01-20T03:45:00.088Z,99967.04
2023-01-20T03:47:48.502Z,99963.39
2023-01-20T03:50:18.102Z,99969.63
2023-01-20T03:52:48.770Z,99975.33
2023-01-20T03:55:23.732Z,99983.14
2023-01-20T03:57:58.217Z,99991.95
2023-01-20T04:00:26.305Z,99995.94
2023-01-20T04:03:58.901Z,99996.53
2023-01-20T04:06:26.549Z,100002.85
2023-01-20T04:08:57.183Z,100005.64
2023-01-20T04:11:24.410Z,100007.90
2023-01-20T04:13:51.387Z,100008.38
2023-01-20T04:16:18.531Z,100012.77
2023-01-20T04:18:50.377Z,100018.19
2023-01-20T04:21:33.205Z,100022.01
2023-01-20T04:24:31.386Z,100021.29
2023-01-20T04:26:58.430Z,100021.45
2023-01-20T04:29:25.274Z,100024.27
2023-01-20T04:31:58.802Z,100032.27
2023-01-20T04:34:25.819Z,100036.36
2023-01-20T04:36:52.775Z,100040.64
2023-01-20T04:39:19.609Z,100043.89
2023-01-20T04:41:47.680Z,100045.38
2023-01-20T04:44:14.504Z,100056.94
2023-01-20T04:46:41.371Z,100052.56
2023-01-20T04:49:10.591Z,100056.15
2023-01-20T04:51:37.509Z,100062.64
2023-01-20T04:54:04.452Z,100060.85
2023-01-20T04:56:33.727Z,100058.33
2023-01-20T04:59:00.702Z,100062.07
2023-01-20T05:01:29.820Z,100062.44
2023-01-20T05:03:56.943Z,100064.73
2023-01-20T05:06:23.889Z,100074.39
2023-01-20T05:08:50.834Z,100080.94
2023-01-20T05:11:17.826Z,100076.66
2023-01-20T05:13:44.827Z,100076.35
2023-01-20T05:16:11.843Z,100078.64
2023-01-20T05:18:39.126Z,100076.84
2023-01-20T05:21:08.931Z,100079.31
2023-01-20T05:23:36.099Z,100081.00
2023-01-20T05:26:03.244Z,100090.98
2023-01-20T05:28:30.183Z,100102.05
2023-01-20T05:30:57.328Z,100105.20
2023-01-20T05:33:24.488Z,100103.34
2023-01-20T05:35:51.640Z,100102.48
2023-01-20T05:38:18.584Z,100101.26
2023-01-20T05:40:45.537Z,100104.02
2023-01-20T05:45:00.980Z,100110.96
2023-01-20T05:47:28.557Z,100116.48
2023-01-20T05:49:55.808Z,100121.32
2023-01-20T05:52:22.988Z,100122.00
2023-01-20T05:54:50.202Z,100119.02
2023-01-20T05:57:18.547Z,100114.59
2023-01-20T05:59:47.936Z,100115.31
2023-01-20T06:02:18.903Z,100116.94
2023-01-20T06:04:46.707Z,100118.85
2023-01-20T06:07:14.042Z,100121.70
2023-01-20T06:09:41.399Z,100125.98
2023-01-20T06:12:52.928Z,100126.00
2023-01-20T06:15:19.953Z,100127.20
2023-01-20T06:17:48.541Z,100128.02
2023-01-20T06:20:24.797Z,100131.95
2023-01-20T06:22:56.065Z,100138.73
2023-01-20T06:25:30.473Z,100140.18
2023-01-20T06:27:57.475Z,100145.11
2023-01-20T06:30:24.914Z,100144.00
2023-01-20T06:32:53.105Z,100143.83
2023-01-20T06:35:21.826Z,100144.09
2023-01-20T06:37:48.853Z,100146.25
2023-01-20T06:40:16.949Z,100145.88
2023-01-20T06:42:44.031Z,100148.77
2023-01-20T06:45:11.517Z,100155.30
2023-01-20T06:47:38.819Z,100158.52
2023-01-20T06:50:07.811Z,100158.05
2023-01-20T06:52:34.875Z,100164.25
2023-01-20T06:55:02.036Z,100168.89
2023-01-20T06:57:31.496Z,100169.58
2023-01-20T06:59:59.521Z,100167.25
2023-01-20T07:02:26.924Z,100168.36
2023-01-20T07:04:54.343Z,100175.81
2023-01-20T07:07:21.547Z,100177.89
2023-01-20T07:09:48.697Z,100173.50
2023-01-20T07:12:15.821Z,100179.84
2023-01-20T07:14:43.013Z,100181.64
2023-01-20T07:17:12.482Z,100183.07
2023-01-20T07:19:39.624Z,100185.86
2023-01-20T07:22:06.698Z,100190.39
2023-01-20T07:24:33.831Z,100194.65
2023-01-20T07:27:00.991Z,100201.17
2023-01-20T07:29:28.013Z,100196.74
2023-01-20T07:31:55.356Z,100187.16
2023-01-20T07:34:22.578Z,100183.78
2023-01-20T07:36:53.090Z,100185.19
2023-01-20T07:39:22.954Z,100185.00
2023-01-20T07:41:49.957Z,100188.52
2023-01-20T07:44:17.080Z,100192.45
2023-01-20T07:46:44.159Z,100200.73
2023-01-20T07:49:12.441Z,100201.04
2023-01-20T07:51:40.088Z,100203.40
2023-01-20T07:54:10.042Z,100206.94
2023-01-20T07:56:37.113Z,100210.08
2023-01-20T07:59:04.300Z,100213.98
2023-01-20T08:01:32.138Z,100209.17
2023-01-20T08:04:00.835Z,100207.25
2023-01-20T08:06:29.856Z,100207.97
2023-01-20T08:08:58.876Z,100206.30
2023-01-20T08:11:26.185Z,100211.75
2023-01-20T08:13:53.472Z,100216.83
2023-01-20T08:16:21.081Z,100217.41
2023-01-20T08:18:48.456Z,100218.88
2023-01-20T08:21:23.637Z,100221.23
2023-01-20T08:23:50.854Z,100214.73
2023-01-20T08:26:19.672Z,100213.58
2023-01-20T08:28:47.756Z,100214.55
2023-01-20T08:31:16.934Z,100210.66
2023-01-20T08:33:44.197Z,100209.27
2023-01-20T08:36:19.286Z,100210.40
2023-01-20T08:38:46.751Z,100216.30
2023-01-20T08:41:19.126Z,100219.05
2023-01-20T08:43:46.147Z,100217.89
2023-01-20T08:46:14.252Z,100226.27
2023-01-20T08:48:41.896Z,100226.12
2023-01-20T08:51:19.752Z,100220.86
2023-01-20T08:53:49.179Z,100219.94
2023-01-20T08:56:16.993Z,100214.14
2023-01-20T08:58:45.235Z,100212.19
2023-01-20T09:01:23.836Z,100208.59
2023-01-20T09:04:04.429Z,100209.94
2023-01-20T09:06:43.975Z,100211.48
2023-01-20T09:09:13.616Z,100214.98
2023-01-20T09:11:41.133Z,100213.06
2023-01-20T09:14:08.397Z,100210.86
2023-01-20T09:16:35.693Z,100210.09
2023-01-20T09:19:03.652Z,100213.67
2023-01-20T09:21:33.262Z,100215.11
2023-01-20T09:24:00.532Z,100211.05
2023-01-20T09:26:35.675Z,100216.36
2023-01-20T09:29:09.923Z,100216.69
2023-01-20T09:31:47.470Z,100221.05
2023-01-20T09:34:19.761Z,100221.95
2023-01-20T09:37:23.819Z,100224.98
2023-01-20T09:40:09.826Z,100223.04
2023-01-20T09:42:55.695Z,100221.35
2023-01-20T09:45:39.167Z,100221.81
2023-01-20T09:48:43.973Z,100225.17
2023-01-20T09:51:37.546Z,100228.78
2023-01-20T09:54:08.939Z,100228.63
2023-01-20T10:10:42.619Z,100219.85
2023-01-20T10:13:20.056Z,100220.95
2023-01-20T10:15:49.895Z,100219.52
2023-01-20T10:18:19.988Z,100216.48
2023-01-20T10:20:52.906Z,100212.48
2023-01-20T10:23:32.002Z,100209.27
2023-01-20T10:26:06.020Z,100209.72
2023-01-20T10:28:57.847Z,100211.84
2023-01-20T10:31:29.525Z,100213.37
2023-01-20T10:33:59.726Z,100212.64
2023-01-20T10:36:28.347Z,100216.77
2023-01-20T10:39:01.530Z,100223.23
2023-01-20T10:41:38.997Z,100219.79
2023-01-20T10:44:10.957Z,100219.27
2023-01-20T10:47:17.429Z,100220.54
2023-01-20T10:50:12.125Z,100222.39
2023-01-20T10:52:58.321Z,100219.34
2023-01-20T10:56:13.958Z,100219.16
2023-01-20T10:58:42.938Z,100221.45
2023-01-20T11:01:13.204Z,100218.69
2023-01-20T11:03:42.323Z,100218.83
2023-01-20T11:06:27.367Z,100220.10
2023-01-20T11:08:54.748Z,100224.70
2023-01-20T11:11:23.309Z,100215.65
2023-01-20T11:13:53.861Z,100210.67
2023-01-20T11:16:25.752Z,100207.19
2023-01-20T11:18:56.763Z,100203.98
2023-01-20T11:21:24.331Z,100206.89
2023-01-20T11:23:51.784Z,100203.00
2023-01-20T11:26:25.635Z,100203.08
2023-01-20T11:28:57.551Z,100204.46
2023-01-20T11:31:44.338Z,100210.77
2023-01-20T11:34:27.149Z,100212.43
2023-01-20T11:37:06.473Z,100215.43
2023-01-20T11:39:58.458Z,100220.95
2023-01-20T11:42:27.438Z,100222.25
2023-01-20T11:44:55.203Z,100224.26
2023-01-20T11:47:30.661Z,100225.86
2023-01-20T11:50:04.157Z,100225.02
2023-01-20T11:52:35.908Z,100223.89
2023-01-20T11:55:06.849Z,100223.72
2023-01-20T11:57:33.819Z,100220.95
2023-01-20T12:00:00.712Z,100225.20
2023-01-20T12:02:27.797Z,100230.95
2023-01-20T12:05:03.037Z,100230.77
2023-01-20T12:07:33.559Z,100231.90
2023-01-20T12:10:04.052Z,100234.80
2023-01-20T12:12:45.082Z,100235.04
2023-01-20T12:15:17.954Z,100238.08
2023-01-20T12:18:11.256Z,100245.38
2023-01-20T12:20:55.447Z,100248.11
2023-01-20T12:23:45.244Z,100249.66
2023-01-20T12:26:13.996Z,100244.94
2023-01-20T12:29:02.796Z,100248.13
2023-01-20T12:31:30.176Z,100254.77
2023-01-20T12:34:03.427Z,100260.74
2023-01-20T12:36:35.708Z,100259.00
2023-01-20T12:39:11.777Z,100260.20
2023-01-20T12:41:57.460Z,100260.83
2023-01-20T12:44:35.987Z,100259.85
2023-01-20T12:47:08.796Z,100263.80
2023-01-20T12:49:46.959Z,100266.90
2023-01-20T12:52:22.872Z,100265.80
2023-01-20T12:54:55.803Z,100267.54
2023-01-20T12:57:34.940Z,100272.64
2023-01-20T13:00:15.309Z,100276.06
2023-01-20T13:02:51.776Z,100271.00
2023-01-20T13:05:27.721Z,100271.45
2023-01-20T13:07:57.700Z,100273.08
2023-01-20T13:10:49.517Z,100272.93
2023-01-20T13:13:25.068Z,100274.02
2023-01-20T13:16:02.307Z,100270.67
2023-01-20T13:18:41.949Z,100268.70
2023-01-20T13:21:18.629Z,100266.05
2023-01-20T13:23:46.135Z,100266.14
2023-01-20T13:26:13.230Z,100264.50
2023-01-20T13:28:50.320Z,100262.36
2023-01-20T13:31:35.869Z,100264.67
2023-01-20T13:34:21.535Z,100269.27
2023-01-20T13:37:04.291Z,100275.27
2023-01-20T13:39:39.103Z,100275.88
2023-01-20T13:42:29.212Z,100273.90
2023-01-20T14:10:30.707Z,100277.67
2023-01-20T14:12:57.756Z,100280.95
2023-01-20T14:15:28.647Z,100282.14
2023-01-20T14:17:55.853Z,100283.48
2023-01-20T14:20:23.516Z,100286.48
2023-01-20T14:22:50.345Z,100287.66
2023-01-20T14:25:25.306Z,100289.59
2023-01-20T14:27:52.456Z,100288.32
2023-01-20T14:30:28.316Z,100289.41
2023-01-20T14:32:55.236Z,100291.74
2023-01-20T14:35:33.200Z,100289.33
2023-01-20T14:38:00.397Z,100289.46
2023-01-20T14:40:31.254Z,100289.35
2023-01-20T14:43:03.095Z,100288.84
2023-01-20T14:45:31.789Z,100291.27
2023-01-20T14:48:00.146Z,100289.98
2023-01-20T14:50:27.227Z,100288.00
2023-01-20T14:52:54.345Z,100293.04
2023-01-20T14:55:35.227Z,100294.58
2023-01-20T14:58:12.612Z,100296.27
2023-01-20T15:00:42.538Z,100297.65
2023-01-20T15:03:29.880Z,100301.81
2023-01-20T15:05:58.944Z,100304.56
2023-01-20T15:08:32.556Z,100305.39
2023-01-20T15:11:18.131Z,100305.64
2023-01-20T15:13:52.447Z,100310.73
2023-01-20T15:16:48.781Z,100309.76
2023-01-20T15:19:17.979Z,100308.27
2023-01-20T15:21:57.649Z,100306.34
2023-01-20T15:24:30.750Z,100297.24
2023-01-20T15:26:59.809Z,100291.73
2023-01-20T15:29:32.224Z,100291.96
2023-01-20T15:32:09.076Z,100293.98
2023-01-20T15:34:35.946Z,100294.80
2023-01-20T15:37:02.851Z,100293.27
2023-01-20T15:39:30.248Z,100294.96
2023-01-20T15:41:57.622Z,100298.41
2023-01-20T15:44:25.223Z,100300.55
2023-01-20T15:46:53.799Z,100303.63
2023-01-20T15:49:21.779Z,100303.15
2023-01-20T15:51:48.865Z,100304.83
2023-01-20T15:54:16.083Z,100305.27
2023-01-20T15:56:42.830Z,100307.07
2023-01-20T15:59:12.309Z,100308.16
2023-01-20T16:01:39.491Z,100315.45
2023-01-20T16:04:07.033Z,100316.61
2023-01-20T16:06:34.188Z,100321.09
2023-01-20T16:09:01.824Z,100317.66
2023-01-20T16:11:28.867Z,100319.06
2023-01-20T16:13:57.376Z,100315.67
2023-01-20T16:16:25.171Z,100314.88
2023-01-20T16:18:53.522Z,100317.39
2023-01-20T16:21:20.489Z,100316.61
2023-01-20T16:23:47.419Z,100315.25
2023-01-20T16:26:16.014Z,100316.85
2023-01-20T16:28:42.946Z,100322.66
2023-01-20T16:31:11.825Z,100324.21
2023-01-20T16:33:38.754Z,100323.75
2023-01-20T16:36:08.903Z,100321.65
2023-01-20T16:38:35.690Z,100320.71
2023-01-20T16:41:16.382Z,100325.20
2023-01-20T16:43:43.147Z,100327.51
2023-01-20T16:46:13.854Z,100329.23
2023-01-20T16:48:41.034Z,100330.05
2023-01-20T16:51:11.984Z,100336.27
2023-01-20T16:53:39.945Z,100343.66
2023-01-20T16:56:20.921Z,100343.58
2023-01-20T16:58:49.435Z,100342.28
2023-01-20T17:01:24.125Z,100341.75
2023-01-20T17:03:52.453Z,100338.40
2023-01-20T17:06:21.795Z,100342.09
2023-01-20T17:08:50.444Z,100348.45
2023-01-20T17:11:21.944Z,100347.16
2023-01-20T17:13:49.325Z,100348.63
2023-01-20T17:16:16.784Z,100351.41
2023-01-20T17:18:46.961Z,100350.33
2023-01-20T17:21:14.182Z,100348.60
2023-01-20T17:23:41.790Z,100346.17
2023-01-20T17:26:09.246Z,100347.83
2023-01-20T17:28:35.993Z,100351.37
2023-01-20T17:31:04.338Z,100345.90
2023-01-20T17:33:31.217Z,100344.27
2023-01-20T17:35:59.928Z,100345.89
2023-01-20T17:38:28.197Z,100351.65
2023-01-20T17:41:06.079Z,100355.34
2023-01-20T17:43:36.176Z,100358.08
2023-01-20T17:46:13.539Z,100361.39
2023-01-20T17:48:40.339Z,100362.27
2023-01-20T17:51:12.338Z,100360.52
2023-01-20T18:06:15.461Z,100368.17
2023-01-20T18:08:42.762Z,100376.46
2023-01-20T18:11:16.746Z,100375.17
2023-01-20T18:13:45.343Z,100376.14
2023-01-20T18:16:13.524Z,100375.46
2023-01-20T18:18:41.038Z,100374.90
2023-01-20T18:21:09.797Z,100379.04
2023-01-20T18:23:38.987Z,100379.99
2023-01-20T18:26:06.710Z,100383.88
2023-01-20T18:28:34.485Z,100385.71
2023-01-20T18:31:08.114Z,100386.25
2023-01-20T18:33:39.782Z,100385.88
2023-01-20T18:36:07.507Z,100391.40
2023-01-20T18:38:34.559Z,100391.02
2023-01-20T18:41:02.327Z,100390.99
2023-01-20T18:43:29.825Z,100393.33
2023-01-20T18:45:56.790Z,100396.14
2023-01-20T18:48:25.484Z,100395.15
2023-01-20T18:50:53.301Z,100395.55
2023-01-20T18:53:20.324Z,100398.02
2023-01-20T18:55:47.272Z,100398.13
2023-01-20T18:58:16.571Z,100402.79
2023-01-20T19:00:43.926Z,100405.52
2023-01-20T19:03:10.788Z,100405.36
2023-01-20T19:05:37.630Z,100403.39
2023-01-20T19:08:05.378Z,100404.92
2023-01-20T19:10:32.323Z,100409.05
2023-01-20T19:12:59.117Z,100414.41
2023-01-20T19:15:26.129Z,100414.91
2023-01-20T19:17:53.059Z,100412.66
2023-01-20T19:20:20.001Z,100419.84
2023-01-20T19:22:46.946Z,100416.60
2023-01-20T19:25:13.891Z,100416.05
2023-01-20T19:27:40.655Z,100419.23
2023-01-20T19:30:08.648Z,100423.79
2023-01-20T19:32:35.652Z,100420.16
2023-01-20T19:35:02.417Z,100418.84
2023-01-20T19:37:29.319Z,100424.50
2023-01-20T19:39:56.794Z,100428.80
2023-01-20T19:42:25.723Z,100433.61
2023-01-20T19:44:52.800Z,100437.20
2023-01-20T19:47:19.788Z,100438.67
2023-01-20T19:49:46.731Z,100440.45
2023-01-20T19:52:13.588Z,100443.77
2023-01-20T19:54:40.432Z,100442.05
2023-01-20T19:57:07.362Z,100442.16
2023-01-20T19:59:34.220Z,100443.61
2023-01-20T20:02:01.355Z,100448.44
2023-01-20T20:04:28.235Z,100451.91
2023-01-20T20:06:55.259Z,100455.13
2023-01-20T20:09:25.996Z,100458.23
2023-01-20T20:11:53.184Z,100458.61
2023-01-20T20:14:21.528Z,100461.99
2023-01-20T20:16:48.811Z,100460.58
2023-01-20T20:19:18.165Z,100460.30
2023-01-20T20:21:45.422Z,100465.77
2023-01-20T20:24:13.295Z,100471.16
2023-01-20T20:26:40.232Z,100477.25
2023-01-20T20:29:07.617Z,100476.68
2023-01-20T20:31:36.433Z,100482.34
2023-01-20T20:34:03.935Z,100481.72
2023-01-20T20:36:33.044Z,100485.28
2023-01-20T20:39:01.260Z,100485.27
2023-01-20T20:41:31.227Z,100485.55
2023-01-20T20:43:59.100Z,100484.31
2023-01-20T20:46:26.577Z,100485.14
2023-01-20T20:48:55.031Z,100485.20
2023-01-20T20:51:23.890Z,100486.58
2023-01-20T20:53:54.140Z,100490.30
2023-01-20T20:56:21.293Z,100491.44
2023-01-20T20:59:00.484Z,100492.83
2023-01-20T21:01:29.697Z,100494.10
2023-01-20T21:03:58.086Z,100500.55
2023-01-20T21:06:25.721Z,100504.19
2023-01-20T21:08:52.882Z,100509.19
2023-01-20T21:11:20.592Z,100514.14
2023-01-20T21:13:49.649Z,100512.58
2023-01-20T21:27:20.638Z,100514.58
2023-01-20T21:29:47.464Z,100516.66
2023-01-20T21:32:14.391Z,100519.27
2023-01-20T21:34:41.359Z,100520.19
2023-01-20T21:37:08.604Z,100515.61
2023-01-20T21:39:35.538Z,100514.82
2023-01-20T21:42:02.581Z,100521.28
2023-01-20T21:44:29.538Z,100528.55
2023-01-20T21:46:57.322Z,100530.55
2023-01-20T21:49:43.077Z,100526.23
2023-01-20T21:52:33.985Z,100525.80
2023-01-20T21:55:01.377Z,100525.91
2023-01-20T21:57:32.900Z,100534.05
2023-01-20T22:00:00.371Z,100534.02
2023-01-20T22:02:28.168Z,100532.91
2023-01-20T22:04:55.780Z,100530.06
2023-01-20T22:07:23.145Z,100528.42
2023-01-20T22:09:50.014Z,100523.23
2023-01-20T22:12:16.878Z,100524.30
2023-01-20T22:14:43.793Z,100529.80
2023-01-20T22:17:11.327Z,100532.23
2023-01-20T22:19:38.781Z,100530.29
2023-01-20T22:22:05.831Z,100531.73
2023-01-20T22:24:32.882Z,100525.81
2023-01-20T22:27:00.129Z,100519.14
2023-01-20T22:29:27.074Z,100522.40
2023-01-20T22:31:54.655Z,100522.57
2023-01-20T22:34:21.693Z,100524.23
2023-01-20T22:36:48.629Z,100523.30
2023-01-20T22:39:15.882Z,100518.38
2023-01-20T22:41:42.832Z,100517.09
2023-01-20T22:44:09.664Z,100520.61
2023-01-20T22:46:36.559Z,100521.73
2023-01-20T22:49:03.668Z,100521.20
2023-01-20T22:51:30.714Z,100521.61
2023-01-20T22:53:58.989Z,100521.54
2023-01-20T22:56:27.833Z,100518.96
2023-01-20T22:58:58.319Z,100517.11
2023-01-20T23:01:32.967Z,100519.06
2023-01-20T23:04:01.621Z,100518.52
2023-01-20T23:06:29.907Z,100518.52
2023-01-20T23:08:56.844Z,100519.00
2023-01-20T23:11:24.095Z,100515.85
2023-01-20T23:13:51.491Z,100514.63
2023-01-20T23:16:20.258Z,100516.80
2023-01-20T23:18:47.291Z,100519.21
2023-01-20T23:21:14.288Z,100517.61
2023-01-20T23:23:41.386Z,100520.36
2023-01-20T23:26:16.654Z,100522.47
2023-01-20T23:28:44.284Z,100526.80
2023-01-20T23:31:13.237Z,100523.35
2023-01-20T23:33:42.611Z,100522.36
2023-01-20T23:36:16.490Z,100525.98
2023-01-20T23:38:43.566Z,100535.50
2023-01-20T23:41:11.319Z,100540.09
2023-01-20T23:43:38.394Z,100546.70
2023-01-20T23:46:06.285Z,100547.54
2023-01-20T23:48:33.705Z,100549.05
2023-01-20T23:51:01.987Z,100545.39
2023-01-20T23:53:30.562Z,100543.30
2023-01-20T23:56:08.150Z,100545.38
2023-01-20T23:58:35.093Z,100549.70
